Time;durP1;ratioP1;P1;durP2;ratioP2;P2;SDS_P1;SDS_P2;PMS_P1;PMS_P2;Temp;Humidity;BMP_temperature;BMP_pressure;BME280_temperature;BME280_humidity;BME280_pressure;Samples;Min_cycle;Max_cycle;Signal;HPM_P1;HPM_P2
2021/03/18 00:00:26;538163.00;1.79;927.56;82999.00;0.28;144.22;;;;;11.10;1.00;;;;;;2262008;61;1145;-85
2021/03/18 00:02:53;473147.00;1.58;815.60;83087.00;0.28;144.37;;;;;10.70;1.00;;;;;;2267879;61;1088;-86
2021/03/18 00:05:19;556218.00;1.85;958.68;84464.00;0.28;146.75;;;;;10.30;1.00;;;;;;2267607;61;1282;-85
2021/03/18 00:07:46;461549.00;1.54;795.65;85596.00;0.29;148.70;;;;;9.70;1.00;;;;;;2267726;61;1125;-85
2021/03/18 00:10:15;276210.00;0.92;477.02;87717.00;0.29;152.37;;;;;9.50;1.00;;;;;;2270514;61;1169;-85
2021/03/18 00:12:42;449185.00;1.50;774.38;75964.00;0.25;132.07;;;;;9.90;1.00;;;;;;2280404;61;1654;-85
2021/03/18 00:15:10;350622.00;1.17;604.93;85434.00;0.28;148.42;;;;;10.20;1.00;;;;;;2280119;61;1929;-86
2021/03/18 00:17:38;419163.00;1.40;722.75;91729.00;0.31;159.29;;;;;10.60;1.00;;;;;;2280443;61;1001;-84
2021/03/18 00:20:07;456659.00;1.52;787.24;81756.00;0.27;142.07;;;;;10.10;1.00;;;;;;2280434;61;921;-85
2021/03/18 00:22:35;362275.00;1.21;624.96;88098.00;0.29;153.02;;;;;9.90;1.00;;;;;;2273347;61;1015;-85
2021/03/18 00:25:02;455181.00;1.52;784.69;85768.00;0.29;149.00;;;;;9.80;1.00;;;;;;2280268;61;1659;-85
2021/03/18 00:27:28;277695.00;0.93;479.57;76206.00;0.25;132.48;;;;;9.90;1.00;;;;;;2280188;61;1133;-84
2021/03/18 00:29:55;477312.00;1.59;822.77;78985.00;0.26;137.28;;;;;9.80;1.00;;;;;;2280439;61;1032;-86
2021/03/18 00:32:22;500149.00;1.67;862.08;83433.00;0.28;144.97;;;;;9.50;1.00;;;;;;2280399;61;1101;-85
2021/03/18 00:34:48;402111.00;1.34;693.43;84742.00;0.28;147.23;;;;;9.70;1.00;;;;;;2280285;61;1992;-85
2021/03/18 00:37:15;293981.00;0.98;507.57;82663.00;0.28;143.64;;;;;9.60;1.00;;;;;;2280410;61;1056;-86
2021/03/18 00:39:41;291786.00;0.97;503.80;79800.00;0.27;138.69;;;;;9.00;1.00;;;;;;2281013;61;1060;-86
2021/03/18 00:42:08;409024.00;1.36;705.32;82720.00;0.28;143.74;;;;;9.00;1.00;;;;;;2281156;61;979;-85
2021/03/18 00:44:34;227020.00;0.76;392.42;86918.00;0.29;150.99;;;;;9.00;1.00;;;;;;2281035;61;1317;-85
2021/03/18 00:47:02;323075.00;1.08;557.58;91937.00;0.31;159.65;;;;;8.70;1.00;;;;;;2281027;61;1141;-85
2021/03/18 00:49:28;178006.00;0.59;308.06;84163.00;0.28;146.23;;;;;8.80;1.00;;;;;;2280956;61;2078;-86
2021/03/18 00:51:55;267655.00;0.89;462.31;89274.00;0.30;155.05;;;;;9.70;1.00;;;;;;2280993;61;1734;-85
2021/03/18 00:54:21;221967.00;0.74;383.73;84560.00;0.28;146.91;;;;;9.70;1.00;;;;;;2280777;61;1907;-85
2021/03/18 00:56:48;216718.00;0.72;374.70;86324.00;0.29;149.96;;;;;9.60;1.00;;;;;;2281041;61;1050;-85
2021/03/18 00:59:15;227174.00;0.76;392.69;88766.00;0.30;154.18;;;;;9.40;1.00;;;;;;2281039;61;1147;-86
2021/03/18 01:01:41;164859.00;0.55;285.41;77469.00;0.26;134.67;;;;;9.40;1.00;;;;;;2280994;61;1000;-86
2021/03/18 01:04:09;109810.00;0.37;190.50;29096.00;0.10;51.02;;;;;9.60;1.00;;;;;;2280905;61;1314;-86
2021/03/18 01:06:37;0.00;0.00;0.62;0.00;0.00;0.62;;;;;9.50;1.00;;;;;;2280989;61;1119;-86
2021/03/18 01:09:06;166400.00;0.55;288.07;84488.00;0.28;146.79;;;;;9.80;1.00;;;;;;2281031;61;985;-86
2021/03/18 01:11:36;173266.00;0.58;299.89;90589.00;0.30;157.32;;;;;10.50;1.00;;;;;;2280789;61;1151;-86
2021/03/18 01:14:06;180657.00;0.60;312.62;85285.00;0.28;148.17;;;;;10.40;1.00;;;;;;2272292;61;1920;-86
2021/03/18 01:16:34;200391.00;0.67;346.60;94727.00;0.32;164.47;;;;;10.20;1.00;;;;;;2272401;61;1700;-86
2021/03/18 01:19:03;208978.00;0.70;361.38;80903.00;0.27;140.60;;;;;9.60;1.00;;;;;;2272434;61;994;-86
2021/03/18 01:21:34;244933.00;0.82;423.24;82532.00;0.28;143.41;;;;;9.20;1.00;;;;;;2272310;61;1618;-85
2021/03/18 01:24:01;362230.00;1.21;624.88;91353.00;0.30;158.64;;;;;9.20;1.00;;;;;;2272292;61;1629;-86
2021/03/18 01:26:28;319222.00;1.06;550.96;96040.00;0.32;166.74;;;;;9.50;1.00;;;;;;2272321;61;1112;-84
2021/03/18 01:28:55;346496.00;1.15;597.84;82258.00;0.27;142.94;;;;;9.10;1.00;;;;;;2272328;61;1326;-86
2021/03/18 01:31:21;291724.00;0.97;503.69;81356.00;0.27;141.38;;;;;9.10;1.00;;;;;;2274094;61;1092;-85
2021/03/18 01:33:48;526614.00;1.76;907.66;132631.00;0.44;229.87;;;;;8.70;1.00;;;;;;2280705;61;1994;-86
2021/03/18 01:36:15;515668.00;1.72;888.80;119584.00;0.40;207.36;;;;;8.30;1.00;;;;;;2280917;61;1119;-87
2021/03/18 01:38:44;417486.00;1.39;719.87;112079.00;0.37;194.42;;;;;8.30;1.00;;;;;;2280878;61;1291;-85
2021/03/18 01:41:12;324797.00;1.08;560.54;79251.00;0.26;137.74;;;;;9.00;1.00;;;;;;2280400;61;1147;-86
2021/03/18 01:43:39;479700.00;1.60;826.88;82429.00;0.27;143.23;;;;;10.00;1.00;;;;;;2280828;61;1126;-86
2021/03/18 01:46:06;334868.00;1.12;577.85;79718.00;0.27;138.55;;;;;10.60;1.00;;;;;;2280863;61;1205;-87
2021/03/18 01:48:33;330658.00;1.10;570.62;80582.00;0.27;140.04;;;;;11.10;1.00;;;;;;2280833;61;1068;-86
2021/03/18 01:51:00;308218.00;1.03;532.05;84216.00;0.28;146.32;;;;;11.60;1.00;;;;;;2280675;61;976;-85
2021/03/18 01:53:28;397004.00;1.32;684.65;77476.00;0.26;134.68;;;;;11.40;1.00;;;;;;2273756;61;1993;-84
2021/03/18 01:55:57;359509.00;1.20;620.20;90279.00;0.30;156.79;;;;;10.60;1.00;;;;;;2280781;61;1569;-86
2021/03/18 01:58:25;609927.00;2.03;1051.36;60590.00;0.20;105.50;;;;;9.80;1.00;;;;;;2280873;61;1012;-86
2021/03/18 02:00:54;489594.00;1.63;843.91;77570.00;0.26;134.84;;;;;9.60;1.00;;;;;;2280871;61;1126;-86
2021/03/18 02:03:21;495603.00;1.65;854.25;85817.00;0.29;149.08;;;;;10.10;1.00;;;;;;2280885;61;1053;-87
2021/03/18 02:05:49;543568.00;1.81;936.87;82169.00;0.27;142.78;;;;;10.80;1.00;;;;;;2280794;61;1424;-85
2021/03/18 02:08:16;741143.00;2.47;1278.66;79486.00;0.26;138.15;;;;;11.30;1.00;;;;;;2280713;61;1057;-86
2021/03/18 02:10:44;506518.00;1.69;873.05;80522.00;0.27;139.94;;;;;11.80;1.00;;;;;;2280787;61;1118;-86
2021/03/18 02:13:14;506945.00;1.69;873.78;79567.00;0.27;138.29;;;;;12.00;1.00;;;;;;2280777;61;1910;-86
2021/03/18 02:15:43;699093.00;2.33;1205.67;76831.00;0.26;133.56;;;;;11.90;1.00;;;;;;2280632;61;1378;-87
2021/03/18 02:18:16;301069.00;1.00;519.76;0.00;0.00;0.62;;;;;11.80;1.00;;;;;;2280751;61;1171;-85
2021/03/18 02:21:34;382498.00;1.27;659.72;0.00;0.00;0.62;;;;;12.00;1.00;;;;;;2280436;61;1090;-86
2021/03/18 02:24:21;86575.00;0.29;150.39;0.00;0.00;0.62;;;;;11.60;1.00;;;;;;2280328;61;1385;-87
2021/03/18 02:27:17;76947.00;0.26;133.76;0.00;0.00;0.62;;;;;11.30;1.00;;;;;;2280543;61;1128;-86
2021/03/18 02:30:25;4862.00;0.02;9.05;0.00;0.00;0.62;;;;;11.00;1.00;;;;;;2280785;61;1097;-86
2021/03/18 02:33:26;0.00;0.00;0.62;0.00;0.00;0.62;;;;;11.00;1.00;;;;;;2280771;61;1146;-85
2021/03/18 02:35:58;71068.00;0.24;123.61;0.00;0.00;0.62;;;;;10.30;1.00;;;;;;2280689;61;1352;-86
2021/03/18 02:38:32;563547.00;1.88;971.32;74999.00;0.25;130.40;;;;;10.10;1.00;;;;;;2280786;61;894;-86
2021/03/18 02:41:03;228287.00;0.76;394.60;83731.00;0.28;145.48;;;;;10.60;1.00;;;;;;2280701;61;1012;-86
2021/03/18 02:43:35;185799.00;0.62;321.48;83858.00;0.28;145.70;;;;;11.00;1.00;;;;;;2268056;61;1101;-86
2021/03/18 02:46:03;237225.00;0.79;409.98;81736.00;0.27;142.04;;;;;11.60;1.00;;;;;;2268101;61;1381;-85
2021/03/18 02:48:34;200672.00;0.67;347.08;70773.00;0.24;123.10;;;;;11.90;1.00;;;;;;2271139;61;1117;-87
2021/03/18 02:51:01;249909.00;0.83;431.79;81565.00;0.27;141.74;;;;;12.00;1.00;;;;;;2272177;61;1163;-86
2021/03/18 02:53:34;271114.00;0.90;468.26;77745.00;0.26;135.14;;;;;12.10;1.00;;;;;;2272103;61;2006;-85
2021/03/18 02:56:03;335590.00;1.12;579.09;84873.00;0.28;147.45;;;;;11.90;1.00;;;;;;2272086;61;1520;-86
2021/03/18 02:58:35;429421.00;1.43;740.39;76601.00;0.26;133.17;;;;;11.50;1.00;;;;;;2272040;61;1111;-85
2021/03/18 03:01:04;304613.00;1.02;525.85;86832.00;0.29;150.84;;;;;11.50;1.00;;;;;;2274583;61;1074;-85
2021/03/18 03:03:33;241336.00;0.80;417.05;86042.00;0.29;149.47;;;;;11.40;1.00;;;;;;2280546;61;1166;-86
2021/03/18 03:06:04;358369.00;1.19;618.25;77886.00;0.26;135.39;;;;;11.30;1.00;;;;;;2280531;61;1328;-85
2021/03/18 03:08:32;390005.00;1.30;672.62;93052.00;0.31;161.58;;;;;11.50;1.00;;;;;;2280615;61;1008;-86
2021/03/18 03:11:01;396516.00;1.32;683.82;78024.00;0.26;135.62;;;;;11.50;1.00;;;;;;2280562;61;1068;-85
2021/03/18 03:13:31;280607.00;0.94;484.58;80231.00;0.27;139.44;;;;;11.50;1.00;;;;;;2280591;61;1992;-84
2021/03/18 03:16:00;119960744.00;399.87;69931264.00;87602.00;0.29;152.17;;;;;11.50;1.00;;;;;;2280564;61;1290;-85
2021/03/18 03:18:28;322072.00;1.07;555.86;88259.00;0.29;153.30;;;;;11.20;1.00;;;;;;2280597;61;1091;-84
2021/03/18 03:20:58;277656.00;0.93;479.51;92043.00;0.31;159.84;;;;;11.30;1.00;;;;;;2280603;61;1005;-83
2021/03/18 03:23:26;332799.00;1.11;574.30;82908.00;0.28;144.06;;;;;11.40;1.00;;;;;;2267893;61;946;-84
2021/03/18 03:25:56;371473.00;1.24;640.77;78494.00;0.26;136.44;;;;;11.50;1.00;;;;;;2267920;61;1314;-83
2021/03/18 03:28:25;338935.00;1.13;584.84;81190.00;0.27;141.09;;;;;11.40;1.00;;;;;;2257998;61;973;-84
2021/03/18 03:30:52;453989.00;1.51;782.64;81126.00;0.27;140.98;;;;;11.30;1.00;;;;;;2263858;61;979;-84
2021/03/18 03:33:18;299148.00;1.00;516.46;69711.00;0.23;121.26;;;;;10.90;1.00;;;;;;2263897;61;2034;-85
2021/03/18 03:35:45;298295.00;0.99;514.99;63555.00;0.21;110.62;;;;;11.10;1.00;;;;;;2263870;61;1511;-84
2021/03/18 03:38:12;344347.00;1.15;594.15;79625.00;0.27;138.39;;;;;11.30;1.00;;;;;;2263906;61;1105;-84
2021/03/18 03:40:40;309577.00;1.03;534.38;86773.00;0.29;150.74;;;;;11.40;1.00;;;;;;2265211;61;1154;-84
2021/03/18 03:43:07;315334.00;1.05;544.28;75939.00;0.25;132.02;;;;;11.60;1.00;;;;;;2271919;61;1029;-84
2021/03/18 03:45:34;312484.00;1.04;539.38;80365.00;0.27;139.67;;;;;11.50;1.00;;;;;;2271953;61;1488;-85
2021/03/18 03:48:00;249575.00;0.83;431.22;77757.00;0.26;135.16;;;;;11.50;1.00;;;;;;2272929;61;1023;-85
2021/03/18 03:50:29;486657.00;1.62;838.85;137988.00;0.46;239.10;;;;;11.30;1.00;;;;;;2273355;61;1085;-85
2021/03/18 03:53:10;346272.00;1.15;597.45;84147.00;0.28;146.20;;;;;11.10;1.00;;;;;;2280464;61;1121;-85
2021/03/18 03:55:47;179831.00;0.60;311.20;0.00;0.00;0.62;;;;;11.10;1.00;;;;;;2276651;61;2005;-84
2021/03/18 03:58:31;238207.00;0.79;411.67;0.00;0.00;0.62;;;;;11.30;1.00;;;;;;2280514;61;1026;-85
2021/03/18 04:01:00;141453.00;0.47;245.08;0.00;0.00;0.62;;;;;11.50;1.00;;;;;;2276688;61;970;-84
2021/03/18 04:03:27;151346.00;0.50;262.13;0.00;0.00;0.62;;;;;10.90;1.00;;;;;;2276745;61;1016;-85
2021/03/18 04:05:59;412257.00;1.37;710.88;0.00;0.00;0.62;;;;;10.60;1.00;;;;;;2280455;61;1471;-85
2021/03/18 04:08:28;329348.00;1.10;568.37;0.00;0.00;0.62;;;;;10.10;1.00;;;;;;2280479;61;1108;-85
2021/03/18 04:10:57;382587.00;1.28;659.87;0.00;0.00;0.62;;;;;10.50;1.00;;;;;;2280507;61;1054;-86
2021/03/18 04:13:27;314426.00;1.05;542.72;0.00;0.00;0.62;;;;;11.20;1.00;;;;;;2280206;61;2018;-86
2021/03/18 04:15:57;314391.00;1.05;542.66;0.00;0.00;0.62;;;;;11.40;1.00;;;;;;2280390;61;1454;-86
2021/03/18 04:18:29;208377.00;0.69;360.34;0.00;0.00;0.62;;;;;11.70;1.00;;;;;;2273259;61;1271;-86
2021/03/18 04:20:58;274987.00;0.92;474.92;11140.00;0.04;19.92;;;;;10.70;1.00;;;;;;2275908;61;1027;-85
2021/03/18 04:23:27;315406.00;1.05;544.40;0.00;0.00;0.62;;;;;10.00;1.00;;;;;;2265877;61;1051;-85
2021/03/18 04:25:58;87850.00;0.29;152.60;0.00;0.00;0.62;;;;;9.90;1.00;;;;;;2267737;61;1403;-86
2021/03/18 04:28:27;321895.00;1.07;555.56;77743.00;0.26;135.14;;;;;10.10;1.00;;;;;;2261066;61;1085;-86
2021/03/18 04:30:53;595792.00;1.99;1026.95;194204.00;0.65;335.95;;;;;10.60;1.00;;;;;;2267781;61;1176;-85
2021/03/18 04:33:21;108634.00;0.36;188.47;0.00;0.00;0.62;;;;;10.70;1.00;;;;;;2257812;61;2006;-84
2021/03/18 04:35:48;133159.00;0.44;230.78;0.00;0.00;0.62;;;;;10.70;1.00;;;;;;2257819;61;1371;-85
2021/03/18 04:38:14;311675.00;1.04;537.99;0.00;0.00;0.62;;;;;10.30;1.00;;;;;;2268614;61;1012;-85
2021/03/18 04:40:41;94206.00;0.31;163.57;0.00;0.00;0.62;;;;;9.60;1.00;;;;;;2271830;61;1017;-85
2021/03/18 04:43:09;227295.00;0.76;392.90;0.00;0.00;0.62;;;;;9.10;1.00;;;;;;2273146;61;1130;-85
2021/03/18 04:45:37;258934.00;0.86;447.32;0.00;0.00;0.62;;;;;9.10;1.00;;;;;;2280309;61;1718;-84
2021/03/18 04:48:05;193374.00;0.64;334.52;0.00;0.00;0.62;;;;;9.20;1.00;;;;;;2280362;61;1042;-84
2021/03/18 04:50:33;116692.00;0.39;202.38;0.00;0.00;0.62;;;;;9.00;1.00;;;;;;2280376;61;938;-84
2021/03/18 04:52:59;203189.00;0.68;351.41;0.00;0.00;0.62;;;;;8.90;1.00;;;;;;2280278;61;1052;-84
2021/03/18 04:55:27;257362.00;0.86;444.61;0.00;0.00;0.62;;;;;8.60;1.00;;;;;;2280263;61;1996;-86
2021/03/18 04:57:59;354765.00;1.18;612.05;32200.00;0.11;56.39;;;;;8.60;1.00;;;;;;2280319;61;1105;-85
2021/03/18 05:00:28;122008.00;0.41;211.55;0.00;0.00;0.62;;;;;8.60;1.00;;;;;;2280390;61;1179;-84
2021/03/18 05:03:01;131640.00;0.44;228.16;0.00;0.00;0.62;;;;;8.70;1.00;;;;;;2280310;61;1129;-85
2021/03/18 05:05:28;160964.00;0.54;278.70;26305.00;0.09;46.19;;;;;8.50;1.00;;;;;;2280267;61;1633;-86
2021/03/18 05:07:55;158543.00;0.53;274.53;0.00;0.00;0.62;;;;;8.40;1.00;;;;;;2280310;61;1078;-86
2021/03/18 05:10:24;105591.00;0.35;183.22;0.00;0.00;0.62;;;;;8.50;1.00;;;;;;2280294;61;1060;-87
2021/03/18 05:12:52;311463.00;1.04;537.62;25461.00;0.08;44.73;;;;;8.80;1.00;;;;;;2280202;61;1076;-87
2021/03/18 05:15:19;122803.00;0.41;212.92;0.00;0.00;0.62;;;;;9.20;1.00;;;;;;2280255;61;1923;-86
2021/03/18 05:17:47;235898.00;0.79;407.70;13094.00;0.04;23.31;;;;;9.40;1.00;;;;;;2280341;61;1118;-86
2021/03/18 05:20:15;305346.00;1.02;527.11;0.00;0.00;0.62;;;;;9.60;1.00;;;;;;2280174;61;1907;-87
2021/03/18 05:22:46;277307.00;0.92;478.91;0.00;0.00;0.62;;;;;9.60;1.00;;;;;;2280192;61;940;-86
2021/03/18 05:25:14;337045.00;1.12;581.59;0.00;0.00;0.62;;;;;9.10;1.00;;;;;;2273553;61;1443;-86
2021/03/18 05:27:42;212725.00;0.71;367.82;18358.00;0.06;32.43;;;;;9.10;1.00;;;;;;2270381;61;1075;-86
2021/03/18 05:30:11;338273.00;1.13;583.71;0.00;0.00;0.62;;;;;8.90;1.00;;;;;;2280832;61;1161;-86
2021/03/18 05:32:38;105057.00;0.35;182.30;0.00;0.00;0.62;;;;;9.00;1.00;;;;;;2268266;61;971;-85
2021/03/18 05:35:08;264319.00;0.88;456.58;0.00;0.00;0.62;;;;;9.20;1.00;;;;;;2268152;61;1914;-85
2021/03/18 05:37:35;302295.00;1.01;521.87;16017.00;0.05;28.37;;;;;9.20;1.00;;;;;;2268014;61;1117;-85
2021/03/18 05:40:04;176221.00;0.59;304.98;0.00;0.00;0.62;;;;;9.40;1.00;;;;;;2268198;61;1060;-85
2021/03/18 05:42:32;230965.00;0.77;399.21;0.00;0.00;0.62;;;;;9.70;1.00;;;;;;2268193;61;1033;-83
2021/03/18 05:44:58;153328.00;0.51;265.54;0.00;0.00;0.62;;;;;9.50;1.00;;;;;;2268036;61;1419;-84
2021/03/18 05:47:25;313956.00;1.05;541.91;0.00;0.00;0.62;;;;;9.00;1.00;;;;;;2268203;61;1174;-85
2021/03/18 05:49:52;190496.00;0.63;329.56;0.00;0.00;0.62;;;;;8.70;1.00;;;;;;2266842;61;1001;-84
2021/03/18 05:52:21;252676.00;0.84;436.55;0.00;0.00;0.62;;;;;9.20;1.00;;;;;;2280819;61;1055;-85
2021/03/18 05:54:50;375024.00;1.25;646.87;0.00;0.00;0.62;;;;;9.60;1.00;;;;;;2276660;61;2014;-84
2021/03/18 05:57:19;264172.00;0.88;456.32;0.00;0.00;0.62;;;;;9.90;1.00;;;;;;2271623;61;972;-83
2021/03/18 05:59:47;322211.00;1.07;556.10;11155.00;0.04;19.95;;;;;9.90;1.00;;;;;;2272117;61;1011;-84
2021/03/18 06:02:14;165041.00;0.55;285.72;0.00;0.00;0.62;;;;;10.20;1.00;;;;;;2272072;61;931;-84
2021/03/18 06:04:41;546420.00;1.82;941.79;43419.00;0.14;75.80;;;;;10.80;1.00;;;;;;2272136;61;1417;-83
2021/03/18 06:07:09;399693.00;1.33;689.28;0.00;0.00;0.62;;;;;11.30;1.00;;;;;;2272177;61;1142;-85
2021/03/18 06:09:37;311624.00;1.04;537.90;0.00;0.00;0.62;;;;;11.70;1.00;;;;;;2272128;61;1134;-85
2021/03/18 06:12:05;208817.00;0.70;361.10;0.00;0.00;0.62;;;;;11.70;1.00;;;;;;2272144;61;1082;-85
2021/03/18 06:14:32;271579.00;0.91;469.06;0.00;0.00;0.62;;;;;11.60;1.00;;;;;;2270184;61;2007;-85
2021/03/18 06:16:59;304420.00;1.01;525.52;0.00;0.00;0.62;;;;;11.60;1.00;;;;;;2273595;61;997;-85
2021/03/18 06:19:26;240521.00;0.80;415.65;0.00;0.00;0.62;;;;;11.60;1.00;;;;;;2271961;61;947;-85
2021/03/18 06:21:55;450899.00;1.50;777.33;35768.00;0.12;62.57;;;;;11.60;1.00;;;;;;2272029;61;1886;-84
2021/03/18 06:24:23;312508.00;1.04;539.42;0.00;0.00;0.62;;;;;11.70;1.00;;;;;;2272066;61;1301;-84
2021/03/18 06:26:50;281546.00;0.94;486.20;0.00;0.00;0.62;;;;;11.80;1.00;;;;;;2263875;61;1031;-85
2021/03/18 06:29:35;383393.00;1.28;661.26;72085.00;0.24;125.36;;;;;12.00;1.00;;;;;;2263952;61;1044;-84
2021/03/18 06:32:16;299300.00;1.00;516.72;0.00;0.00;0.62;;;;;11.70;1.00;;;;;;2263887;61;1678;-84
2021/03/18 06:34:46;213417.00;0.71;369.02;0.00;0.00;0.62;;;;;11.70;1.00;;;;;;2263828;61;1923;-84
2021/03/18 06:37:39;125344.00;0.42;217.30;0.00;0.00;0.62;;;;;11.70;1.00;;;;;;2265457;61;1082;-85
2021/03/18 06:40:12;0.00;0.00;0.62;0.00;0.00;0.62;;;;;11.90;1.00;;;;;;2267976;61;1004;-85
2021/03/18 06:42:41;0.00;0.00;0.62;0.00;0.00;0.62;;;;;11.90;1.00;;;;;;2268002;61;1082;-84
2021/03/18 06:45:11;112914.00;0.38;195.86;0.00;0.00;0.62;;;;;12.00;1.00;;;;;;2275803;61;1291;-85
2021/03/18 06:47:43;309754.00;1.03;534.69;0.00;0.00;0.62;;;;;12.10;1.00;;;;;;2280445;61;1594;-85
2021/03/18 06:50:11;161422.00;0.54;279.49;0.00;0.00;0.62;;;;;12.10;1.00;;;;;;2271992;61;972;-85
2021/03/18 06:52:39;146638.00;0.49;254.01;0.00;0.00;0.62;;;;;12.00;1.00;;;;;;2272041;61;1014;-85
2021/03/18 06:55:08;208574.00;0.70;360.68;0.00;0.00;0.62;;;;;12.20;1.00;;;;;;2261960;61;2009;-85
2021/03/18 06:57:35;66190.00;0.22;115.18;0.00;0.00;0.62;;;;;12.40;1.00;;;;;;2263892;61;970;-85
2021/03/18 07:00:06;184653.00;0.62;319.50;0.00;0.00;0.62;;;;;12.40;1.00;;;;;;2257251;61;1041;-85
2021/03/18 07:02:39;371714.00;1.24;641.18;74670.00;0.25;129.83;;;;;12.50;1.00;;;;;;2259879;61;947;-86
2021/03/18 07:05:16;502462.00;1.67;866.06;79661.00;0.27;138.45;;;;;12.20;1.00;;;;;;2259779;61;1380;-85
2021/03/18 07:07:43;279354.00;0.93;482.43;0.00;0.00;0.62;;;;;11.20;1.00;;;;;;2250202;61;1012;-86
2021/03/18 07:10:10;497503.00;1.66;857.52;81706.00;0.27;141.98;;;;;10.80;1.00;;;;;;2255828;61;998;-86
2021/03/18 07:12:37;586237.00;1.95;1010.46;120917.00;0.40;209.66;;;;;10.30;1.00;;;;;;2255512;61;1011;-86
2021/03/18 07:15:17;357097.00;1.19;616.06;79904.00;0.27;138.87;;;;;10.50;1.00;;;;;;2256273;61;1915;-86
2021/03/18 07:17:45;450325.00;1.50;776.34;85082.00;0.28;147.81;;;;;10.90;1.00;;;;;;2259823;61;1079;-86
2021/03/18 07:20:14;552978.00;1.84;953.09;85497.00;0.28;148.53;;;;;11.60;1.00;;;;;;2260905;61;1076;-85
2021/03/18 07:22:43;501730.00;1.67;864.80;100404.00;0.33;174.27;;;;;11.30;1.00;;;;;;2263873;61;1042;-86
2021/03/18 07:25:12;294698.00;0.98;508.81;79145.00;0.26;137.56;;;;;10.80;1.00;;;;;;2266971;61;1349;-86
2021/03/18 07:27:41;345478.00;1.15;596.09;107735.00;0.36;186.92;;;;;11.20;1.00;;;;;;2276311;61;1096;-86
2021/03/18 07:30:11;129581.00;0.43;224.61;0.00;0.00;0.62;;;;;11.90;1.00;;;;;;2271836;61;1040;-86
2021/03/18 07:32:38;127518.00;0.43;221.05;0.00;0.00;0.62;;;;;12.10;1.00;;;;;;2271869;61;952;-86
2021/03/18 07:35:06;62558.00;0.21;108.90;0.00;0.00;0.62;;;;;12.20;1.00;;;;;;2268369;61;2000;-86
2021/03/18 07:37:32;0.00;0.00;0.62;0.00;0.00;0.62;;;;;12.80;1.00;;;;;;2271825;61;1168;-84
2021/03/18 07:40:01;35262.00;0.12;61.69;0.00;0.00;0.62;;;;;12.60;1.00;;;;;;2271729;61;1028;-86
2021/03/18 07:42:28;10732.00;0.04;19.22;0.00;0.00;0.62;;;;;12.20;1.00;;;;;;2265175;61;1086;-86
2021/03/18 07:44:56;12534.00;0.04;22.34;0.00;0.00;0.62;;;;;11.70;1.00;;;;;;2271767;61;1310;-86
2021/03/18 07:47:24;99248.00;0.33;172.27;0.00;0.00;0.62;;;;;10.90;1.00;;;;;;2268846;61;1024;-85
2021/03/18 07:49:54;168640.00;0.56;291.92;0.00;0.00;0.62;;;;;10.40;1.00;;;;;;2272579;61;978;-85
2021/03/18 07:52:24;67188.00;0.22;116.90;0.00;0.00;0.62;;;;;10.10;1.00;;;;;;2269159;61;1036;-85
2021/03/18 07:54:52;178973.00;0.60;309.72;80469.00;0.27;139.85;;;;;9.80;1.00;;;;;;2265845;61;1997;-86
2021/03/18 07:57:19;56367.00;0.19;98.20;0.00;0.00;0.62;;;;;9.60;1.00;;;;;;2276246;61;916;-86
2021/03/18 07:59:47;132198.00;0.44;229.12;0.00;0.00;0.62;;;;;9.70;1.00;;;;;;2269128;61;1141;-86
2021/03/18 08:02:17;155708.00;0.52;269.64;0.00;0.00;0.62;;;;;9.80;1.00;;;;;;2263646;61;1036;-86
2021/03/18 08:04:46;119488352.00;398.29;69107616.00;119404080.00;398.01;68961376.00;;;;;10.10;1.00;;;;;;2259639;61;1415;-87
2021/03/18 08:07:32;119791024.00;399.30;69634592.00;0.00;0.00;0.62;;;;;10.60;1.00;;;;;;2256378;61;986;-84
2021/03/18 08:09:59;259052.00;0.86;447.52;85055.00;0.28;147.77;;;;;11.20;1.00;;;;;;2259538;61;988;-84
2021/03/18 08:12:42;124912.00;0.42;216.55;23011.00;0.08;40.48;;;;;11.20;1.00;;;;;;2256331;61;1039;-84
2021/03/18 08:15:45;18337.00;0.06;32.39;0.00;0.00;0.62;;;;;11.00;1.00;;;;;;2259573;61;1916;-84
2021/03/18 08:18:36;154213.00;0.51;267.07;0.00;0.00;0.62;;;;;11.10;1.00;;;;;;2261744;61;1010;-84
2021/03/18 08:21:09;90188.00;0.30;156.63;0.00;0.00;0.62;;;;;11.10;1.00;;;;;;2270508;61;1029;-84
2021/03/18 08:23:40;122553.00;0.41;212.49;0.00;0.00;0.62;;;;;10.60;1.00;;;;;;2266583;61;944;-85
2021/03/18 08:26:10;57273.00;0.19;99.76;0.00;0.00;0.62;;;;;11.10;1.00;;;;;;2264296;61;1288;-84
2021/03/18 08:28:39;141251.00;0.47;244.73;0.00;0.00;0.62;;;;;11.20;1.00;;;;;;2264087;61;997;-84
2021/03/18 08:31:07;395925.00;1.32;682.80;87903.00;0.29;152.69;;;;;11.50;1.00;;;;;;2263535;61;991;-84
2021/03/18 08:33:35;453111.00;1.51;781.13;80228.00;0.27;139.43;;;;;12.40;1.00;;;;;;2259507;61;962;-84
2021/03/18 08:36:23;294807.00;0.98;508.99;85531.00;0.29;148.59;;;;;12.90;1.00;;;;;;2259498;61;1945;-84
2021/03/18 08:38:52;154861.00;0.52;268.18;12448.00;0.04;22.19;;;;;13.10;1.00;;;;;;2259577;61;1122;-84
2021/03/18 08:41:33;165723.00;0.55;286.90;0.00;0.00;0.62;;;;;13.30;1.00;;;;;;2249046;61;979;-84
2021/03/18 08:44:18;309048.00;1.03;533.47;0.00;0.00;0.62;;;;;12.40;1.00;;;;;;2239694;61;1358;-85
2021/03/18 08:46:49;35222.00;0.12;61.62;0.00;0.00;0.62;;;;;11.70;1.00;;;;;;2236444;62;1022;-84
2021/03/18 08:49:29;80195.00;0.27;139.37;5983.00;0.02;10.99;;;;;10.70;1.00;;;;;;2244227;61;1035;-83
2021/03/18 08:51:59;7019.00;0.02;12.78;0.00;0.00;0.62;;;;;11.00;1.00;;;;;;2255552;61;1031;-84
2021/03/18 08:54:51;53807.00;0.18;93.77;0.00;0.00;0.62;;;;;11.20;1.00;;;;;;2259546;61;1924;-84
2021/03/18 08:57:26;82139.00;0.27;142.73;0.00;0.00;0.62;;;;;11.60;1.00;;;;;;2259604;61;1045;-84
2021/03/18 08:59:55;0.00;0.00;0.62;0.00;0.00;0.62;;;;;11.10;1.00;;;;;;2265876;61;1026;-85
2021/03/18 09:02:28;61855.00;0.21;107.68;0.00;0.00;0.62;;;;;10.80;1.00;;;;;;2276584;61;1025;-85
2021/03/18 09:04:55;29557.00;0.10;51.82;0.00;0.00;0.62;;;;;10.70;1.00;;;;;;2276279;61;1443;-85
2021/03/18 09:07:25;0.00;0.00;0.62;0.00;0.00;0.62;;;;;10.40;1.00;;;;;;2276422;61;1157;-84
2021/03/18 09:10:09;93858.00;0.31;162.97;0.00;0.00;0.62;;;;;10.30;1.00;;;;;;2276385;61;1020;-85
2021/03/18 09:12:44;0.00;0.00;0.62;0.00;0.00;0.62;;;;;10.90;1.00;;;;;;2276387;61;1029;-85
2021/03/18 09:15:14;182090.00;0.61;315.09;18519.00;0.06;32.71;;;;;11.10;1.00;;;;;;2276377;61;1998;-85
2021/03/18 09:17:42;98501.00;0.33;170.98;0.00;0.00;0.62;;;;;11.50;1.00;;;;;;2266331;61;1053;-85
2021/03/18 09:20:09;0.00;0.00;0.62;0.00;0.00;0.62;;;;;11.70;1.00;;;;;;2272236;61;980;-84
2021/03/18 09:22:37;31174.00;0.10;54.62;0.00;0.00;0.62;;;;;11.10;1.00;;;;;;2270427;61;1025;-84
2021/03/18 09:25:04;137043.00;0.46;237.47;0.00;0.00;0.62;;;;;11.00;1.00;;;;;;2273696;61;1275;-84
2021/03/18 09:27:36;46267.00;0.15;80.73;0.00;0.00;0.62;;;;;10.70;1.00;;;;;;2269664;61;1027;-85
2021/03/18 09:30:18;162753.00;0.54;281.78;0.00;0.00;0.62;;;;;10.80;1.00;;;;;;2272185;61;1006;-84
2021/03/18 09:32:44;15624.00;0.05;27.69;0.00;0.00;0.62;;;;;11.30;1.00;;;;;;2268074;61;1000;-84
2021/03/18 09:35:12;247028.00;0.82;426.84;68274.00;0.23;118.78;;;;;11.60;1.00;;;;;;2260012;61;2006;-85
2021/03/18 09:37:40;94951.00;0.32;164.86;0.00;0.00;0.62;;;;;11.50;1.00;;;;;;2252120;61;958;-85
2021/03/18 09:40:09;174756.00;0.58;302.46;0.00;0.00;0.62;;;;;11.30;1.00;;;;;;2240238;62;1049;-85
2021/03/18 09:42:36;350801.00;1.17;605.24;39983.00;0.13;69.86;;;;;11.60;1.00;;;;;;2240246;62;1025;-85
2021/03/18 09:45:04;175840.00;0.59;304.33;0.00;0.00;0.62;;;;;11.50;1.00;;;;;;2233652;62;1410;-85
2021/03/18 09:47:31;54843.00;0.18;95.56;0.00;0.00;0.62;;;;;11.10;1.00;;;;;;2239263;62;1081;-84
2021/03/18 09:49:59;227426.00;0.76;393.12;0.00;0.00;0.62;;;;;11.40;1.00;;;;;;2237519;61;1035;-84
2021/03/18 09:52:27;279596.00;0.93;482.84;0.00;0.00;0.62;;;;;10.70;1.00;;;;;;2242810;61;1085;-84
2021/03/18 09:54:55;299104.00;1.00;516.38;0.00;0.00;0.62;;;;;10.60;1.00;;;;;;2253353;61;2012;-85
2021/03/18 09:57:23;147459.00;0.49;255.43;0.00;0.00;0.62;;;;;10.60;1.00;;;;;;2262116;61;1050;-84